sensor_id;sensor_type;location;lat;lon;timestamp;P1;durP1;ratioP1;P2;durP2;ratioP2
10687;SDS011;5392;42.688;23.298;2023-03-14T00:00:08;8.02;;;5.35;;
10687;SDS011;5392;42.688;23.298;2023-03-14T00:02:37;4.10;;;3.58;;
10687;SDS011;5392;42.688;23.298;2023-03-14T00:05:04;2.28;;;1.92;;
10687;SDS011;5392;42.688;23.298;2023-03-14T00:07:36;3.70;;;2.88;;
10687;SDS011;5392;42.688;23.298;2023-03-14T00:10:06;5.13;;;1.80;;
10687;SDS011;5392;42.688;23.298;2023-03-14T00:12:35;3.13;;;2.60;;
10687;SDS011;5392;42.688;23.298;2023-03-14T00:15:02;2.30;;;1.55;;
10687;SDS011;5392;42.688;23.298;2023-03-14T00:17:30;1.42;;;1.20;;
10687;SDS011;5392;42.688;23.298;2023-03-14T00:19:58;2.40;;;1.70;;
10687;SDS011;5392;42.688;23.298;2023-03-14T00:22:31;2.45;;;2.22;;
10687;SDS011;5392;42.688;23.298;2023-03-14T00:25:00;2.17;;;1.52;;
10687;SDS011;5392;42.688;23.298;2023-03-14T00:27:26;1.88;;;1.77;;
10687;SDS011;5392;42.688;23.298;2023-03-14T00:29:53;2.40;;;2.20;;
10687;SDS011;5392;42.688;23.298;2023-03-14T00:32:20;3.90;;;1.88;;
10687;SDS011;5392;42.688;23.298;2023-03-14T00:34:47;2.50;;;2.28;;
10687;SDS011;5392;42.688;23.298;2023-03-14T00:37:13;2.78;;;1.92;;
10687;SDS011;5392;42.688;23.298;2023-03-14T00:39:40;2.53;;;2.33;;
10687;SDS011;5392;42.688;23.298;2023-03-14T00:42:07;2.97;;;1.88;;
10687;SDS011;5392;42.688;23.298;2023-03-14T00:44:34;2.55;;;2.35;;
10687;SDS011;5392;42.688;23.298;2023-03-14T00:47:01;2.28;;;1.92;;
10687;SDS011;5392;42.688;23.298;2023-03-14T00:49:28;2.88;;;2.00;;
10687;SDS011;5392;42.688;23.298;2023-03-14T00:51:54;4.10;;;2.80;;
10687;SDS011;5392;42.688;23.298;2023-03-14T00:54:21;4.18;;;2.15;;
10687;SDS011;5392;42.688;23.298;2023-03-14T00:56:47;2.72;;;1.83;;
10687;SDS011;5392;42.688;23.298;2023-03-14T00:59:15;2.25;;;2.03;;
10687;SDS011;5392;42.688;23.298;2023-03-14T01:01:42;3.28;;;2.05;;
10687;SDS011;5392;42.688;23.298;2023-03-14T01:04:09;3.88;;;2.75;;
10687;SDS011;5392;42.688;23.298;2023-03-14T01:06:36;2.38;;;2.15;;
10687;SDS011;5392;42.688;23.298;2023-03-14T01:09:03;4.35;;;2.90;;
10687;SDS011;5392;42.688;23.298;2023-03-14T01:11:31;3.33;;;2.63;;
10687;SDS011;5392;42.688;23.298;2023-03-14T01:14:00;2.80;;;2.60;;
10687;SDS011;5392;42.688;23.298;2023-03-14T01:16:28;3.10;;;2.28;;
10687;SDS011;5392;42.688;23.298;2023-03-14T01:18:57;2.67;;;2.03;;
10687;SDS011;5392;42.688;23.298;2023-03-14T01:21:28;2.97;;;2.25;;
10687;SDS011;5392;42.688;23.298;2023-03-14T01:23:57;2.92;;;2.50;;
10687;SDS011;5392;42.688;23.298;2023-03-14T01:26:26;3.15;;;2.90;;
10687;SDS011;5392;42.688;23.298;2023-03-14T01:28:55;8.20;;;6.20;;
10687;SDS011;5392;42.688;23.298;2023-03-14T01:31:22;9.95;;;7.18;;
10687;SDS011;5392;42.688;23.298;2023-03-14T01:33:50;8.45;;;5.65;;
10687;SDS011;5392;42.688;23.298;2023-03-14T01:36:17;5.72;;;4.72;;
10687;SDS011;5392;42.688;23.298;2023-03-14T01:38:44;13.98;;;6.90;;
10687;SDS011;5392;42.688;23.298;2023-03-14T01:41:13;11.52;;;7.05;;
10687;SDS011;5392;42.688;23.298;2023-03-14T01:43:42;10.95;;;7.60;;
10687;SDS011;5392;42.688;23.298;2023-03-14T01:46:14;13.63;;;8.65;;
10687;SDS011;5392;42.688;23.298;2023-03-14T01:51:17;15.23;;;9.65;;
10687;SDS011;5392;42.688;23.298;2023-03-14T01:53:50;12.20;;;9.38;;
10687;SDS011;5392;42.688;23.298;2023-03-14T01:56:21;15.80;;;10.27;;
10687;SDS011;5392;42.688;23.298;2023-03-14T01:58:49;16.08;;;10.40;;
10687;SDS011;5392;42.688;23.298;2023-03-14T02:01:19;15.73;;;10.23;;
10687;SDS011;5392;42.688;23.298;2023-03-14T02:03:58;15.13;;;10.15;;
10687;SDS011;5392;42.688;23.298;2023-03-14T02:06:29;16.45;;;10.75;;
10687;SDS011;5392;42.688;23.298;2023-03-14T02:09:02;15.10;;;10.05;;
10687;SDS011;5392;42.688;23.298;2023-03-14T02:11:30;15.52;;;9.65;;
10687;SDS011;5392;42.688;23.298;2023-03-14T02:13:58;15.20;;;9.88;;
10687;SDS011;5392;42.688;23.298;2023-03-14T02:16:27;15.73;;;10.05;;
10687;SDS011;5392;42.688;23.298;2023-03-14T02:18:54;15.70;;;9.90;;
10687;SDS011;5392;42.688;23.298;2023-03-14T02:29:12;17.25;;;9.93;;
10687;SDS011;5392;42.688;23.298;2023-03-14T02:31:39;14.38;;;9.13;;
10687;SDS011;5392;42.688;23.298;2023-03-14T02:34:06;16.10;;;9.70;;
10687;SDS011;5392;42.688;23.298;2023-03-14T02:36:33;12.20;;;9.35;;
10687;SDS011;5392;42.688;23.298;2023-03-14T02:39:08;14.52;;;10.27;;
10687;SDS011;5392;42.688;23.298;2023-03-14T02:41:48;13.93;;;9.45;;
10687;SDS011;5392;42.688;23.298;2023-03-14T02:44:15;13.55;;;9.85;;
10687;SDS011;5392;42.688;23.298;2023-03-14T02:46:42;15.95;;;9.50;;
10687;SDS011;5392;42.688;23.298;2023-03-14T02:49:10;12.88;;;9.63;;
10687;SDS011;5392;42.688;23.298;2023-03-14T02:51:40;14.00;;;9.32;;
10687;SDS011;5392;42.688;23.298;2023-03-14T02:54:09;18.23;;;9.50;;
10687;SDS011;5392;42.688;23.298;2023-03-14T02:56:36;17.83;;;10.77;;
10687;SDS011;5392;42.688;23.298;2023-03-14T02:59:03;20.52;;;10.07;;
10687;SDS011;5392;42.688;23.298;2023-03-14T03:01:31;16.75;;;10.70;;
10687;SDS011;5392;42.688;23.298;2023-03-14T03:03:58;15.68;;;10.70;;
10687;SDS011;5392;42.688;23.298;2023-03-14T03:06:25;14.90;;;10.43;;
10687;SDS011;5392;42.688;23.298;2023-03-14T03:08:52;15.07;;;10.40;;
10687;SDS011;5392;42.688;23.298;2023-03-14T03:11:18;14.73;;;11.02;;
10687;SDS011;5392;42.688;23.298;2023-03-14T03:13:45;17.73;;;10.77;;
10687;SDS011;5392;42.688;23.298;2023-03-14T03:16:12;13.85;;;10.52;;
10687;SDS011;5392;42.688;23.298;2023-03-14T03:18:41;18.35;;;10.98;;
10687;SDS011;5392;42.688;23.298;2023-03-14T03:21:08;14.00;;;9.85;;
10687;SDS011;5392;42.688;23.298;2023-03-14T03:23:35;17.27;;;11.00;;
10687;SDS011;5392;42.688;23.298;2023-03-14T03:26:02;16.40;;;10.57;;
10687;SDS011;5392;42.688;23.298;2023-03-14T03:28:29;14.18;;;10.38;;
10687;SDS011;5392;42.688;23.298;2023-03-14T03:30:56;16.92;;;10.43;;
10687;SDS011;5392;42.688;23.298;2023-03-14T03:33:22;14.80;;;9.30;;
10687;SDS011;5392;42.688;23.298;2023-03-14T03:35:51;16.83;;;9.95;;
10687;SDS011;5392;42.688;23.298;2023-03-14T03:38:18;16.15;;;9.73;;
10687;SDS011;5392;42.688;23.298;2023-03-14T03:40:46;14.55;;;8.60;;
10687;SDS011;5392;42.688;23.298;2023-03-14T03:43:13;14.52;;;9.20;;
10687;SDS011;5392;42.688;23.298;2023-03-14T03:45:40;16.85;;;9.35;;
10687;SDS011;5392;42.688;23.298;2023-03-14T03:48:06;15.40;;;9.88;;
10687;SDS011;5392;42.688;23.298;2023-03-14T03:50:34;15.95;;;9.43;;
10687;SDS011;5392;42.688;23.298;2023-03-14T03:53:01;14.55;;;9.75;;
10687;SDS011;5392;42.688;23.298;2023-03-14T03:55:27;16.48;;;10.85;;
10687;SDS011;5392;42.688;23.298;2023-03-14T03:57:54;16.83;;;10.63;;
10687;SDS011;5392;42.688;23.298;2023-03-14T04:00:21;19.98;;;11.75;;
10687;SDS011;5392;42.688;23.298;2023-03-14T04:02:48;13.50;;;10.98;;
10687;SDS011;5392;42.688;23.298;2023-03-14T04:05:14;17.65;;;10.93;;
10687;SDS011;5392;42.688;23.298;2023-03-14T04:07:41;17.35;;;11.10;;
10687;SDS011;5392;42.688;23.298;2023-03-14T04:10:08;22.98;;;11.85;;
10687;SDS011;5392;42.688;23.298;2023-03-14T04:12:35;16.08;;;12.10;;
10687;SDS011;5392;42.688;23.298;2023-03-14T04:15:02;19.70;;;11.90;;
10687;SDS011;5392;42.688;23.298;2023-03-14T04:17:29;18.48;;;11.95;;
10687;SDS011;5392;42.688;23.298;2023-03-14T04:19:55;19.63;;;12.48;;
10687;SDS011;5392;42.688;23.298;2023-03-14T04:22:22;23.02;;;11.90;;
10687;SDS011;5392;42.688;23.298;2023-03-14T04:24:48;25.60;;;12.85;;
10687;SDS011;5392;42.688;23.298;2023-03-14T04:27:15;22.30;;;11.75;;
10687;SDS011;5392;42.688;23.298;2023-03-14T04:29:42;20.33;;;11.57;;
10687;SDS011;5392;42.688;23.298;2023-03-14T04:32:09;18.88;;;11.43;;
10687;SDS011;5392;42.688;23.298;2023-03-14T04:34:36;24.38;;;11.63;;
10687;SDS011;5392;42.688;23.298;2023-03-14T04:37:03;17.92;;;11.05;;
10687;SDS011;5392;42.688;23.298;2023-03-14T04:39:30;21.33;;;12.65;;
10687;SDS011;5392;42.688;23.298;2023-03-14T04:41:56;24.33;;;12.43;;
10687;SDS011;5392;42.688;23.298;2023-03-14T04:44:23;25.23;;;12.15;;
10687;SDS011;5392;42.688;23.298;2023-03-14T04:46:50;23.52;;;11.75;;
10687;SDS011;5392;42.688;23.298;2023-03-14T04:49:17;24.27;;;11.82;;
10687;SDS011;5392;42.688;23.298;2023-03-14T04:51:43;18.58;;;12.23;;
10687;SDS011;5392;42.688;23.298;2023-03-14T04:54:10;23.55;;;13.00;;
10687;SDS011;5392;42.688;23.298;2023-03-14T04:56:37;25.23;;;12.38;;
10687;SDS011;5392;42.688;23.298;2023-03-14T04:59:04;19.58;;;10.02;;
10687;SDS011;5392;42.688;23.298;2023-03-14T05:01:31;31.42;;;13.77;;
10687;SDS011;5392;42.688;23.298;2023-03-14T05:03:57;30.38;;;14.45;;
10687;SDS011;5392;42.688;23.298;2023-03-14T05:06:24;24.17;;;13.52;;
10687;SDS011;5392;42.688;23.298;2023-03-14T05:08:51;31.73;;;14.77;;
10687;SDS011;5392;42.688;23.298;2023-03-14T05:11:18;22.05;;;12.60;;
10687;SDS011;5392;42.688;23.298;2023-03-14T05:13:44;16.85;;;10.82;;
10687;SDS011;5392;42.688;23.298;2023-03-14T05:16:11;19.58;;;10.82;;
10687;SDS011;5392;42.688;23.298;2023-03-14T05:18:38;27.88;;;14.38;;
10687;SDS011;5392;42.688;23.298;2023-03-14T05:21:05;23.02;;;11.57;;
10687;SDS011;5392;42.688;23.298;2023-03-14T05:23:32;28.63;;;12.68;;
10687;SDS011;5392;42.688;23.298;2023-03-14T05:25:59;38.15;;;14.52;;
10687;SDS011;5392;42.688;23.298;2023-03-14T05:28:25;25.30;;;13.60;;
10687;SDS011;5392;42.688;23.298;2023-03-14T05:30:52;33.40;;;14.85;;
10687;SDS011;5392;42.688;23.298;2023-03-14T05:33:18;35.25;;;14.15;;
10687;SDS011;5392;42.688;23.298;2023-03-14T05:35:45;27.77;;;11.88;;
10687;SDS011;5392;42.688;23.298;2023-03-14T05:38:12;21.63;;;11.98;;
10687;SDS011;5392;42.688;23.298;2023-03-14T05:40:38;23.55;;;11.18;;
10687;SDS011;5392;42.688;23.298;2023-03-14T05:43:05;22.08;;;11.82;;
10687;SDS011;5392;42.688;23.298;2023-03-14T05:45:34;23.83;;;12.27;;
10687;SDS011;5392;42.688;23.298;2023-03-14T05:48:01;22.33;;;12.82;;
10687;SDS011;5392;42.688;23.298;2023-03-14T05:50:28;24.95;;;12.18;;
10687;SDS011;5392;42.688;23.298;2023-03-14T05:52:55;25.73;;;13.02;;
10687;SDS011;5392;42.688;23.298;2023-03-14T05:55:22;33.70;;;14.45;;
10687;SDS011;5392;42.688;23.298;2023-03-14T05:57:49;22.13;;;12.55;;
10687;SDS011;5392;42.688;23.298;2023-03-14T06:00:16;29.25;;;13.93;;
10687;SDS011;5392;42.688;23.298;2023-03-14T06:02:43;30.23;;;14.02;;
10687;SDS011;5392;42.688;23.298;2023-03-14T06:05:10;28.67;;;13.07;;
10687;SDS011;5392;42.688;23.298;2023-03-14T06:07:36;26.02;;;13.65;;
10687;SDS011;5392;42.688;23.298;2023-03-14T06:10:03;20.30;;;13.88;;
10687;SDS011;5392;42.688;23.298;2023-03-14T06:12:32;20.05;;;13.27;;
10687;SDS011;5392;42.688;23.298;2023-03-14T06:14:58;17.77;;;11.40;;
10687;SDS011;5392;42.688;23.298;2023-03-14T06:17:25;24.92;;;12.93;;
10687;SDS011;5392;42.688;23.298;2023-03-14T06:19:52;22.23;;;12.25;;
10687;SDS011;5392;42.688;23.298;2023-03-14T06:22:18;30.02;;;14.07;;
10687;SDS011;5392;42.688;23.298;2023-03-14T06:24:46;41.72;;;14.82;;
10687;SDS011;5392;42.688;23.298;2023-03-14T06:27:12;20.08;;;11.02;;
10687;SDS011;5392;42.688;23.298;2023-03-14T06:29:39;16.40;;;11.82;;
10687;SDS011;5392;42.688;23.298;2023-03-14T06:32:05;25.23;;;11.85;;
10687;SDS011;5392;42.688;23.298;2023-03-14T06:34:32;20.35;;;10.98;;
10687;SDS011;5392;42.688;23.298;2023-03-14T06:36:59;21.33;;;11.70;;
10687;SDS011;5392;42.688;23.298;2023-03-14T06:39:26;19.33;;;11.50;;
10687;SDS011;5392;42.688;23.298;2023-03-14T06:41:52;18.42;;;11.50;;
10687;SDS011;5392;42.688;23.298;2023-03-14T06:44:19;18.77;;;11.18;;
10687;SDS011;5392;42.688;23.298;2023-03-14T06:46:46;18.98;;;11.00;;
10687;SDS011;5392;42.688;23.298;2023-03-14T06:49:12;21.80;;;12.15;;
10687;SDS011;5392;42.688;23.298;2023-03-14T06:51:39;18.55;;;11.65;;
10687;SDS011;5392;42.688;23.298;2023-03-14T06:54:05;18.58;;;11.98;;
10687;SDS011;5392;42.688;23.298;2023-03-14T06:56:32;21.52;;;11.80;;
10687;SDS011;5392;42.688;23.298;2023-03-14T06:58:59;21.08;;;12.63;;
10687;SDS011;5392;42.688;23.298;2023-03-14T07:01:27;20.60;;;13.30;;
10687;SDS011;5392;42.688;23.298;2023-03-14T07:03:56;24.30;;;13.90;;
10687;SDS011;5392;42.688;23.298;2023-03-14T07:06:23;26.92;;;13.98;;
10687;SDS011;5392;42.688;23.298;2023-03-14T07:08:50;24.42;;;13.23;;
10687;SDS011;5392;42.688;23.298;2023-03-14T07:11:17;21.55;;;14.95;;
10687;SDS011;5392;42.688;23.298;2023-03-14T07:13:44;19.40;;;13.35;;
10687;SDS011;5392;42.688;23.298;2023-03-14T07:16:11;21.58;;;12.73;;
10687;SDS011;5392;42.688;23.298;2023-03-14T07:18:40;14.57;;;10.13;;
10687;SDS011;5392;42.688;23.298;2023-03-14T07:21:08;8.77;;;7.88;;
10687;SDS011;5392;42.688;23.298;2023-03-14T07:23:35;10.02;;;8.07;;
10687;SDS011;5392;42.688;23.298;2023-03-14T07:26:03;9.63;;;8.25;;
10687;SDS011;5392;42.688;23.298;2023-03-14T07:28:30;12.77;;;7.75;;
10687;SDS011;5392;42.688;23.298;2023-03-14T07:30:58;10.63;;;7.95;;
10687;SDS011;5392;42.688;23.298;2023-03-14T07:33:26;17.55;;;9.55;;
10687;SDS011;5392;42.688;23.298;2023-03-14T07:35:53;14.63;;;10.45;;
10687;SDS011;5392;42.688;23.298;2023-03-14T07:38:20;16.00;;;9.93;;
10687;SDS011;5392;42.688;23.298;2023-03-14T07:40:48;16.67;;;10.38;;
10687;SDS011;5392;42.688;23.298;2023-03-14T07:43:15;18.70;;;11.88;;
10687;SDS011;5392;42.688;23.298;2023-03-14T07:45:44;15.30;;;10.88;;
10687;SDS011;5392;42.688;23.298;2023-03-14T07:48:16;16.15;;;11.95;;
10687;SDS011;5392;42.688;23.298;2023-03-14T07:50:43;14.30;;;11.35;;
10687;SDS011;5392;42.688;23.298;2023-03-14T07:53:10;16.15;;;11.90;;
10687;SDS011;5392;42.688;23.298;2023-03-14T07:55:36;17.00;;;11.77;;
10687;SDS011;5392;42.688;23.298;2023-03-14T07:58:03;16.92;;;12.23;;
10687;SDS011;5392;42.688;23.298;2023-03-14T08:00:30;17.05;;;10.95;;
10687;SDS011;5392;42.688;23.298;2023-03-14T08:02:56;15.05;;;11.20;;
10687;SDS011;5392;42.688;23.298;2023-03-14T08:05:23;14.98;;;11.88;;
10687;SDS011;5392;42.688;23.298;2023-03-14T08:07:50;18.55;;;12.13;;
10687;SDS011;5392;42.688;23.298;2023-03-14T08:10:17;21.92;;;12.52;;
10687;SDS011;5392;42.688;23.298;2023-03-14T08:12:53;15.65;;;12.75;;
10687;SDS011;5392;42.688;23.298;2023-03-14T08:15:22;13.77;;;11.15;;
10687;SDS011;5392;42.688;23.298;2023-03-14T08:17:49;16.52;;;12.05;;
10687;SDS011;5392;42.688;23.298;2023-03-14T08:20:17;16.88;;;12.27;;
10687;SDS011;5392;42.688;23.298;2023-03-14T08:22:44;18.73;;;12.30;;
10687;SDS011;5392;42.688;23.298;2023-03-14T08:25:11;17.13;;;11.60;;
10687;SDS011;5392;42.688;23.298;2023-03-14T08:27:38;15.00;;;11.48;;
10687;SDS011;5392;42.688;23.298;2023-03-14T08:30:05;14.48;;;11.55;;
10687;SDS011;5392;42.688;23.298;2023-03-14T08:32:33;15.88;;;11.13;;
10687;SDS011;5392;42.688;23.298;2023-03-14T08:35:00;12.80;;;9.98;;
10687;SDS011;5392;42.688;23.298;2023-03-14T08:37:27;15.80;;;9.18;;
10687;SDS011;5392;42.688;23.298;2023-03-14T08:39:56;14.52;;;9.20;;
10687;SDS011;5392;42.688;23.298;2023-03-14T08:42:23;13.57;;;9.25;;
10687;SDS011;5392;42.688;23.298;2023-03-14T08:44:51;12.70;;;11.40;;
10687;SDS011;5392;42.688;23.298;2023-03-14T08:47:18;9.65;;;6.30;;
10687;SDS011;5392;42.688;23.298;2023-03-14T08:49:45;10.05;;;6.75;;
10687;SDS011;5392;42.688;23.298;2023-03-14T08:52:12;6.53;;;5.88;;
10687;SDS011;5392;42.688;23.298;2023-03-14T08:54:39;9.50;;;6.05;;
10687;SDS011;5392;42.688;23.298;2023-03-14T08:57:06;11.20;;;6.00;;
10687;SDS011;5392;42.688;23.298;2023-03-14T08:59:32;9.68;;;6.32;;
10687;SDS011;5392;42.688;23.298;2023-03-14T09:01:59;15.95;;;7.80;;
10687;SDS011;5392;42.688;23.298;2023-03-14T09:04:29;8.38;;;6.15;;
10687;SDS011;5392;42.688;23.298;2023-03-14T09:06:56;10.07;;;5.90;;
10687;SDS011;5392;42.688;23.298;2023-03-14T09:09:25;6.70;;;5.05;;
10687;SDS011;5392;42.688;23.298;2023-03-14T09:11:56;8.10;;;6.47;;
10687;SDS011;5392;42.688;23.298;2023-03-14T09:14:23;7.35;;;4.93;;
10687;SDS011;5392;42.688;23.298;2023-03-14T09:16:50;7.63;;;5.18;;
10687;SDS011;5392;42.688;23.298;2023-03-14T09:19:17;4.70;;;4.25;;
10687;SDS011;5392;42.688;23.298;2023-03-14T09:21:43;4.78;;;3.92;;
10687;SDS011;5392;42.688;23.298;2023-03-14T09:24:10;4.63;;;3.97;;
10687;SDS011;5392;42.688;23.298;2023-03-14T09:26:37;4.35;;;3.65;;
10687;SDS011;5392;42.688;23.298;2023-03-14T09:29:04;6.68;;;3.38;;
10687;SDS011;5392;42.688;23.298;2023-03-14T09:31:30;6.25;;;3.80;;
10687;SDS011;5392;42.688;23.298;2023-03-14T09:33:57;8.15;;;4.07;;
10687;SDS011;5392;42.688;23.298;2023-03-14T09:36:24;6.05;;;4.75;;
10687;SDS011;5392;42.688;23.298;2023-03-14T09:38:50;4.97;;;4.20;;
10687;SDS011;5392;42.688;23.298;2023-03-14T09:41:18;5.15;;;4.65;;
10687;SDS011;5392;42.688;23.298;2023-03-14T09:43:55;4.85;;;4.32;;
10687;SDS011;5392;42.688;23.298;2023-03-14T09:46:29;4.60;;;3.58;;
10687;SDS011;5392;42.688;23.298;2023-03-14T09:48:57;5.55;;;4.05;;
10687;SDS011;5392;42.688;23.298;2023-03-14T09:51:24;10.30;;;4.72;;
10687;SDS011;5392;42.688;23.298;2023-03-14T09:53:52;7.70;;;3.92;;
10687;SDS011;5392;42.688;23.298;2023-03-14T09:56:20;18.00;;;5.82;;
10687;SDS011;5392;42.688;23.298;2023-03-14T09:58:48;6.15;;;3.90;;
10687;SDS011;5392;42.688;23.298;2023-03-14T10:01:21;5.15;;;3.15;;
10687;SDS011;5392;42.688;23.298;2023-03-14T10:03:53;9.68;;;3.95;;
10687;SDS011;5392;42.688;23.298;2023-03-14T10:06:27;3.13;;;2.50;;
10687;SDS011;5392;42.688;23.298;2023-03-14T10:08:56;3.25;;;2.95;;
10687;SDS011;5392;42.688;23.298;2023-03-14T10:11:23;4.78;;;2.60;;
10687;SDS011;5392;42.688;23.298;2023-03-14T10:16:42;3.72;;;2.70;;
10687;SDS011;5392;42.688;23.298;2023-03-14T10:19:12;6.35;;;2.13;;
10687;SDS011;5392;42.688;23.298;2023-03-14T10:21:42;4.05;;;2.25;;
10687;SDS011;5392;42.688;23.298;2023-03-14T10:24:21;6.00;;;2.40;;
10687;SDS011;5392;42.688;23.298;2023-03-14T10:26:52;3.22;;;2.58;;
10687;SDS011;5392;42.688;23.298;2023-03-14T10:29:32;2.00;;;1.73;;
10687;SDS011;5392;42.688;23.298;2023-03-14T10:32:00;3.03;;;2.42;;
10687;SDS011;5392;42.688;23.298;2023-03-14T10:34:34;4.05;;;2.65;;
10687;SDS011;5392;42.688;23.298;2023-03-14T10:42:19;3.45;;;3.17;;
10687;SDS011;5392;42.688;23.298;2023-03-14T10:44:54;5.75;;;3.60;;
10687;SDS011;5392;42.688;23.298;2023-03-14T10:47:24;4.10;;;3.55;;
10687;SDS011;5392;42.688;23.298;2023-03-14T10:49:52;9.65;;;3.60;;
10687;SDS011;5392;42.688;23.298;2023-03-14T10:52:23;6.78;;;3.55;;
10687;SDS011;5392;42.688;23.298;2023-03-14T10:55:01;5.30;;;3.90;;
10687;SDS011;5392;42.688;23.298;2023-03-14T10:57:41;4.95;;;3.88;;
10687;SDS011;5392;42.688;23.298;2023-03-14T11:00:18;5.25;;;3.42;;
10687;SDS011;5392;42.688;23.298;2023-03-14T11:02:54;4.07;;;3.70;;
10687;SDS011;5392;42.688;23.298;2023-03-14T11:08:02;6.55;;;3.60;;
10687;SDS011;5392;42.688;23.298;2023-03-14T11:10:36;3.45;;;3.08;;
10687;SDS011;5392;42.688;23.298;2023-03-14T11:16:09;3.20;;;2.28;;
10687;SDS011;5392;42.688;23.298;2023-03-14T11:21:43;2.92;;;2.08;;
10687;SDS011;5392;42.688;23.298;2023-03-14T11:35:16;2.90;;;0.95;;
10687;SDS011;5392;42.688;23.298;2023-03-14T11:37:51;1.40;;;1.00;;
10687;SDS011;5392;42.688;23.298;2023-03-14T11:40:23;2.15;;;0.98;;
10687;SDS011;5392;42.688;23.298;2023-03-14T11:43:15;3.40;;;0.70;;
10687;SDS011;5392;42.688;23.298;2023-03-14T11:46:21;0.90;;;0.60;;
10687;SDS011;5392;42.688;23.298;2023-03-14T11:49:06;1.77;;;1.00;;
10687;SDS011;5392;42.688;23.298;2023-03-14T11:51:40;4.75;;;1.20;;
10687;SDS011;5392;42.688;23.298;2023-03-14T11:57:03;4.03;;;1.00;;
10687;SDS011;5392;42.688;23.298;2023-03-14T12:07:21;0.60;;;0.60;;
10687;SDS011;5392;42.688;23.298;2023-03-14T12:09:54;1.45;;;0.70;;
10687;SDS011;5392;42.688;23.298;2023-03-14T12:12:23;2.42;;;0.80;;
10687;SDS011;5392;42.688;23.298;2023-03-14T12:14:54;1.25;;;0.63;;
10687;SDS011;5392;42.688;23.298;2023-03-14T12:17:27;1.13;;;0.80;;
10687;SDS011;5392;42.688;23.298;2023-03-14T12:20:06;2.53;;;0.70;;
10687;SDS011;5392;42.688;23.298;2023-03-14T12:22:44;1.10;;;0.73;;
10687;SDS011;5392;42.688;23.298;2023-03-14T12:25:15;1.45;;;0.60;;
10687;SDS011;5392;42.688;23.298;2023-03-14T12:35:46;3.53;;;0.50;;
10687;SDS011;5392;42.688;23.298;2023-03-14T12:43:24;7.13;;;0.75;;
10687;SDS011;5392;42.688;23.298;2023-03-14T12:48:50;0.43;;;0.43;;
10687;SDS011;5392;42.688;23.298;2023-03-14T12:51:43;0.40;;;0.40;;
10687;SDS011;5392;42.688;23.298;2023-03-14T12:59:56;1.15;;;0.40;;
10687;SDS011;5392;42.688;23.298;2023-03-14T13:02:26;0.88;;;0.40;;
10687;SDS011;5392;42.688;23.298;2023-03-14T13:15:44;3.10;;;0.50;;
10687;SDS011;5392;42.688;23.298;2023-03-14T13:18:16;0.73;;;0.40;;
10687;SDS011;5392;42.688;23.298;2023-03-14T13:20:48;0.40;;;0.40;;
10687;SDS011;5392;42.688;23.298;2023-03-14T13:23:27;0.63;;;0.40;;
10687;SDS011;5392;42.688;23.298;2023-03-14T13:25:55;1.75;;;0.40;;
10687;SDS011;5392;42.688;23.298;2023-03-14T13:28:23;0.45;;;0.35;;
10687;SDS011;5392;42.688;23.298;2023-03-14T13:30:50;0.93;;;0.30;;
10687;SDS011;5392;42.688;23.298;2023-03-14T13:33:22;0.70;;;0.30;;
10687;SDS011;5392;42.688;23.298;2023-03-14T13:36:00;0.43;;;0.30;;
10687;SDS011;5392;42.688;23.298;2023-03-14T13:38:31;0.50;;;0.30;;
10687;SDS011;5392;42.688;23.298;2023-03-14T13:40:59;1.98;;;0.30;;
10687;SDS011;5392;42.688;23.298;2023-03-14T13:43:34;1.60;;;0.30;;
10687;SDS011;5392;42.688;23.298;2023-03-14T13:48:53;0.50;;;0.30;;
10687;SDS011;5392;42.688;23.298;2023-03-14T13:51:22;0.68;;;0.30;;
10687;SDS011;5392;42.688;23.298;2023-03-14T13:53:51;0.77;;;0.32;;
10687;SDS011;5392;42.688;23.298;2023-03-14T13:56:20;0.30;;;0.30;;
10687;SDS011;5392;42.688;23.298;2023-03-14T13:58:49;0.20;;;0.20;;
10687;SDS011;5392;42.688;23.298;2023-03-14T14:01:22;2.28;;;0.30;;
10687;SDS011;5392;42.688;23.298;2023-03-14T14:03:54;0.30;;;0.30;;
10687;SDS011;5392;42.688;23.298;2023-03-14T14:06:26;2.45;;;0.38;;
10687;SDS011;5392;42.688;23.298;2023-03-14T14:08:58;0.85;;;0.40;;
10687;SDS011;5392;42.688;23.298;2023-03-14T14:14:38;1.15;;;0.30;;
10687;SDS011;5392;42.688;23.298;2023-03-14T14:17:10;0.50;;;0.30;;
10687;SDS011;5392;42.688;23.298;2023-03-14T14:19:40;1.38;;;0.30;;
10687;SDS011;5392;42.688;23.298;2023-03-14T14:22:08;0.30;;;0.30;;
10687;SDS011;5392;42.688;23.298;2023-03-14T14:24:36;0.80;;;0.30;;
10687;SDS011;5392;42.688;23.298;2023-03-14T14:27:10;1.27;;;0.30;;
10687;SDS011;5392;42.688;23.298;2023-03-14T14:29:39;0.28;;;0.28;;
10687;SDS011;5392;42.688;23.298;2023-03-14T14:37:15;2.92;;;0.43;;
10687;SDS011;5392;42.688;23.298;2023-03-14T14:39:47;0.30;;;0.30;;
10687;SDS011;5392;42.688;23.298;2023-03-14T14:42:17;0.30;;;0.30;;
10687;SDS011;5392;42.688;23.298;2023-03-14T14:44:50;2.05;;;0.30;;
10687;SDS011;5392;42.688;23.298;2023-03-14T14:47:20;0.95;;;0.30;;
10687;SDS011;5392;42.688;23.298;2023-03-14T14:49:49;0.93;;;0.38;;
10687;SDS011;5392;42.688;23.298;2023-03-14T14:52:19;0.43;;;0.30;;
10687;SDS011;5392;42.688;23.298;2023-03-14T14:57:25;0.30;;;0.30;;
10687;SDS011;5392;42.688;23.298;2023-03-14T15:00:18;0.30;;;0.30;;
10687;SDS011;5392;42.688;23.298;2023-03-14T15:02:50;2.17;;;0.30;;
10687;SDS011;5392;42.688;23.298;2023-03-14T15:05:24;1.80;;;0.30;;
10687;SDS011;5392;42.688;23.298;2023-03-14T15:07:53;0.30;;;0.30;;
10687;SDS011;5392;42.688;23.298;2023-03-14T15:10:21;4.20;;;0.40;;
10687;SDS011;5392;42.688;23.298;2023-03-14T15:12:49;0.65;;;0.40;;
10687;SDS011;5392;42.688;23.298;2023-03-14T15:15:17;0.40;;;0.40;;
10687;SDS011;5392;42.688;23.298;2023-03-14T15:17:44;1.65;;;0.47;;
10687;SDS011;5392;42.688;23.298;2023-03-14T15:20:12;2.20;;;0.30;;
10687;SDS011;5392;42.688;23.298;2023-03-14T15:22:41;0.20;;;0.20;;
10687;SDS011;5392;42.688;23.298;2023-03-14T15:25:08;3.75;;;0.30;;
10687;SDS011;5392;42.688;23.298;2023-03-14T15:27:52;0.93;;;0.20;;
10687;SDS011;5392;42.688;23.298;2023-03-14T15:30:19;0.75;;;0.30;;
10687;SDS011;5392;42.688;23.298;2023-03-14T15:32:45;0.20;;;0.20;;
10687;SDS011;5392;42.688;23.298;2023-03-14T15:35:13;1.75;;;0.30;;
10687;SDS011;5392;42.688;23.298;2023-03-14T15:37:43;0.95;;;0.30;;
10687;SDS011;5392;42.688;23.298;2023-03-14T15:40:10;3.10;;;0.30;;
10687;SDS011;5392;42.688;23.298;2023-03-14T15:42:40;3.55;;;0.30;;
10687;SDS011;5392;42.688;23.298;2023-03-14T15:45:08;1.65;;;0.30;;
10687;SDS011;5392;42.688;23.298;2023-03-14T15:47:35;2.05;;;0.32;;
10687;SDS011;5392;42.688;23.298;2023-03-14T15:50:02;0.85;;;0.30;;
10687;SDS011;5392;42.688;23.298;2023-03-14T15:52:30;0.20;;;0.20;;
10687;SDS011;5392;42.688;23.298;2023-03-14T15:54:56;1.08;;;0.30;;
10687;SDS011;5392;42.688;23.298;2023-03-14T15:57:23;0.20;;;0.20;;
10687;SDS011;5392;42.688;23.298;2023-03-14T15:59:51;2.03;;;0.30;;
10687;SDS011;5392;42.688;23.298;2023-03-14T16:02:17;1.02;;;0.40;;
10687;SDS011;5392;42.688;23.298;2023-03-14T16:04:44;0.90;;;0.40;;
10687;SDS011;5392;42.688;23.298;2023-03-14T16:07:11;0.30;;;0.30;;
10687;SDS011;5392;42.688;23.298;2023-03-14T16:09:37;1.20;;;0.20;;
10687;SDS011;5392;42.688;23.298;2023-03-14T16:12:04;1.75;;;0.30;;
10687;SDS011;5392;42.688;23.298;2023-03-14T16:14:33;3.33;;;0.40;;
10687;SDS011;5392;42.688;23.298;2023-03-14T16:17:00;1.20;;;0.50;;
10687;SDS011;5392;42.688;23.298;2023-03-14T16:19:27;2.40;;;0.88;;